createdAt,value
2022-11-08T00:02:09.715Z,8.70
2022-11-08T00:04:36.750Z,8.70
2022-11-08T00:07:22.314Z,8.70
2022-11-08T00:10:07.693Z,8.70
2022-11-08T00:12:53.193Z,8.70
2022-11-08T00:15:20.328Z,8.70
2022-11-08T00:17:47.553Z,8.70
2022-11-08T00:20:14.637Z,8.70
2022-11-08T00:22:41.668Z,8.70
2022-11-08T00:25:09.866Z,8.60
2022-11-08T00:27:36.944Z,8.70
2022-11-08T00:30:04.301Z,8.70
2022-11-08T00:32:31.336Z,8.70
2022-11-08T00:34:58.237Z,8.60
2022-11-08T00:37:25.165Z,8.60
2022-11-08T00:39:52.187Z,8.60
2022-11-08T00:42:19.078Z,8.60
2022-11-08T00:44:46.025Z,8.60
2022-11-08T00:47:13.012Z,8.60
2022-11-08T00:49:39.942Z,8.60
2022-11-08T00:52:07.059Z,8.60
2022-11-08T00:54:34.071Z,8.60
2022-11-08T00:57:00.974Z,8.60
2022-11-08T00:59:27.991Z,8.60
2022-11-08T01:01:54.986Z,8.70
2022-11-08T01:04:22.061Z,8.70
2022-11-08T01:06:49.012Z,8.70
2022-11-08T01:09:16.262Z,8.70
2022-11-08T01:11:46.534Z,8.80
2022-11-08T01:14:14.583Z,8.80
2022-11-08T01:16:42.192Z,8.80
2022-11-08T01:19:09.279Z,8.80
2022-11-08T01:21:36.828Z,8.80
2022-11-08T01:24:04.146Z,8.90
2022-11-08T01:26:31.107Z,8.90
2022-11-08T01:28:58.534Z,8.90
2022-11-08T01:31:27.433Z,8.90
2022-11-08T01:33:54.739Z,8.90
2022-11-08T01:36:22.918Z,8.90
2022-11-08T01:38:50.415Z,8.90
2022-11-08T01:41:18.349Z,8.90
2022-11-08T01:43:46.427Z,8.90
2022-11-08T01:46:28.164Z,8.90
2022-11-08T01:49:04.375Z,8.90
2022-11-08T01:51:33.264Z,8.80
2022-11-08T01:54:03.919Z,8.70
2022-11-08T01:56:30.912Z,8.70
2022-11-08T01:58:58.913Z,8.60
2022-11-08T02:01:26.049Z,8.70
2022-11-08T02:03:53.185Z,8.60
2022-11-08T02:06:20.425Z,8.60
2022-11-08T02:08:47.469Z,8.60
2022-11-08T02:11:16.526Z,8.60
2022-11-08T02:13:43.577Z,8.60
2022-11-08T02:16:16.919Z,8.60
2022-11-08T02:18:45.991Z,8.60
2022-11-08T02:21:26.717Z,8.60
2022-11-08T02:23:57.208Z,8.60
2022-11-08T02:26:25.927Z,8.50
2022-11-08T02:28:52.983Z,8.50
2022-11-08T02:31:20.467Z,8.50
2022-11-08T02:33:47.973Z,8.50
2022-11-08T02:36:20.766Z,8.50
2022-11-08T02:38:51.243Z,8.50
2022-11-08T02:41:18.356Z,8.50
2022-11-08T02:43:45.282Z,8.50
2022-11-08T02:46:14.972Z,8.50
2022-11-08T02:48:42.086Z,8.50
2022-11-08T02:51:09.110Z,8.50
2022-11-08T02:53:36.068Z,8.60
2022-11-08T02:56:03.190Z,8.60
2022-11-08T02:58:30.080Z,8.60
2022-11-08T03:00:57.103Z,8.60
2022-11-08T03:03:24.442Z,8.60
2022-11-08T03:05:51.354Z,8.70
2022-11-08T03:08:18.605Z,8.70
2022-11-08T03:10:45.847Z,8.70
2022-11-08T03:13:12.761Z,8.70
2022-11-08T03:15:42.280Z,8.70
2022-11-08T03:18:09.554Z,8.80
2022-11-08T03:20:36.516Z,8.80
2022-11-08T03:23:04.775Z,8.80
2022-11-08T03:25:32.363Z,8.80
2022-11-08T03:28:06.068Z,8.80
2022-11-08T03:30:33.659Z,8.80
2022-11-08T03:33:00.985Z,8.80
2022-11-08T03:35:27.990Z,8.80
2022-11-08T03:37:56.522Z,8.80
2022-11-08T03:40:23.976Z,8.80
2022-11-08T03:42:50.949Z,8.80
2022-11-08T03:45:17.882Z,8.80
2022-11-08T03:47:46.297Z,8.80
2022-11-08T03:50:14.125Z,8.90
2022-11-08T03:52:42.064Z,8.90
2022-11-08T03:55:10.661Z,8.90
2022-11-08T03:57:38.279Z,8.90
2022-11-08T04:00:05.968Z,8.90
2022-11-08T04:02:38.691Z,8.90
2022-11-08T04:05:06.514Z,9.00
2022-11-08T04:07:33.446Z,9.00
2022-11-08T04:10:00.336Z,9.00
2022-11-08T04:12:45.789Z,9.10
2022-11-08T04:15:17.853Z,9.10
2022-11-08T04:18:07.545Z,9.10
2022-11-08T04:20:55.734Z,9.00
2022-11-08T04:23:23.008Z,9.10
2022-11-08T04:25:54.124Z,9.10
2022-11-08T04:28:22.611Z,9.10
2022-11-08T04:31:00.228Z,9.10
2022-11-08T04:33:27.418Z,9.10
2022-11-08T04:35:54.380Z,9.00
2022-11-08T04:38:21.862Z,9.00
2022-11-08T04:40:49.136Z,9.00
2022-11-08T04:43:16.228Z,9.00
2022-11-08T04:45:43.392Z,8.90
2022-11-08T04:48:10.407Z,8.90
2022-11-08T04:50:37.556Z,9.00
2022-11-08T04:53:04.539Z,9.00
2022-11-08T04:55:31.736Z,9.00
2022-11-08T04:57:59.175Z,9.10
2022-11-08T05:00:26.653Z,9.10
2022-11-08T05:02:53.956Z,9.10
2022-11-08T05:05:23.086Z,9.10
2022-11-08T05:07:50.165Z,9.10
2022-11-08T05:10:17.244Z,9.10
2022-11-08T05:12:44.274Z,9.10
2022-11-08T05:15:12.494Z,9.10
2022-11-08T05:17:39.579Z,9.00
2022-11-08T05:20:25.243Z,9.10
2022-11-08T05:23:10.701Z,9.10
2022-11-08T05:25:38.760Z,9.10
2022-11-08T05:28:05.824Z,9.10
2022-11-08T05:30:34.795Z,9.10
2022-11-08T05:33:01.864Z,9.20
2022-11-08T05:35:28.755Z,9.20
2022-11-08T05:37:55.906Z,9.20
2022-11-08T05:40:22.851Z,9.20
2022-11-08T05:42:49.798Z,9.20
2022-11-08T05:45:18.962Z,9.20
2022-11-08T05:47:46.140Z,9.10
2022-11-08T05:50:19.157Z,9.20
2022-11-08T05:52:46.804Z,9.20
2022-11-08T05:55:13.710Z,9.10
2022-11-08T05:57:43.959Z,9.10
2022-11-08T06:00:11.935Z,9.20
2022-11-08T06:02:39.250Z,9.20
2022-11-08T06:05:07.229Z,9.20
2022-11-08T06:07:34.200Z,9.20
2022-11-08T06:10:01.311Z,9.20
2022-11-08T06:12:28.553Z,9.30
2022-11-08T06:14:55.495Z,9.30
2022-11-08T06:17:26.324Z,9.30
2022-11-08T06:19:56.293Z,9.30
2022-11-08T06:22:23.193Z,9.30
2022-11-08T06:24:50.289Z,9.30
2022-11-08T06:27:17.497Z,9.30
2022-11-08T06:29:44.477Z,9.40
2022-11-08T06:32:11.419Z,9.40
2022-11-08T06:34:38.598Z,9.40
2022-11-08T06:37:05.629Z,9.50
2022-11-08T06:39:32.873Z,9.50
2022-11-08T06:42:00.820Z,9.60
2022-11-08T06:44:28.415Z,9.60
2022-11-08T06:46:55.992Z,9.70
2022-11-08T06:49:23.986Z,9.70
2022-11-08T06:51:51.420Z,9.70
2022-11-08T06:54:21.020Z,9.70
2022-11-08T06:56:49.235Z,9.80
2022-11-08T06:59:16.151Z,9.70
2022-11-08T07:01:45.644Z,9.70
2022-11-08T07:04:13.276Z,9.70
2022-11-08T07:06:40.181Z,9.70
2022-11-08T07:09:07.109Z,9.70
2022-11-08T07:11:34.809Z,9.80
2022-11-08T07:14:01.701Z,9.80
2022-11-08T07:16:28.750Z,9.90
2022-11-08T07:18:55.978Z,10.00
2022-11-08T07:21:23.485Z,10.10
2022-11-08T07:23:50.494Z,10.20
2022-11-08T07:26:17.510Z,10.20
2022-11-08T07:28:44.431Z,10.20
2022-11-08T07:31:14.243Z,10.20
2022-11-08T07:33:41.194Z,10.20
2022-11-08T07:36:08.460Z,10.30
2022-11-08T07:38:35.456Z,10.30
2022-11-08T07:41:02.431Z,10.40
2022-11-08T07:43:30.145Z,10.40
2022-11-08T07:46:06.513Z,10.40
2022-11-08T07:48:33.482Z,10.40
2022-11-08T07:51:00.544Z,10.40
2022-11-08T07:53:27.562Z,10.50
2022-11-08T07:55:55.385Z,10.50
2022-11-08T07:58:22.568Z,10.60
2022-11-08T08:00:50.239Z,10.60
2022-11-08T08:03:17.800Z,10.70
2022-11-08T08:05:46.035Z,10.70
2022-11-08T08:08:13.456Z,10.70
2022-11-08T08:10:40.830Z,10.80
2022-11-08T08:13:08.161Z,10.90
2022-11-08T08:15:37.728Z,11.00
2022-11-08T08:18:05.582Z,11.00
2022-11-08T08:20:32.961Z,11.10
2022-11-08T08:23:00.480Z,11.20
2022-11-08T08:25:28.328Z,11.20
2022-11-08T08:27:56.524Z,11.30
2022-11-08T08:30:24.115Z,11.30
2022-11-08T09:47:43.047Z,12.50
2022-11-08T09:50:19.555Z,12.40
2022-11-08T09:52:50.288Z,12.30
2022-11-08T09:55:37.256Z,12.20
2022-11-08T09:58:19.004Z,12.10
2022-11-08T10:00:46.046Z,12.10
2022-11-08T10:03:14.904Z,12.00
2022-11-08T10:06:02.103Z,12.00
2022-11-08T10:08:37.152Z,12.10
2022-11-08T10:11:21.625Z,12.10
2022-11-08T10:14:07.099Z,12.00
2022-11-08T10:16:40.238Z,12.00
2022-11-08T10:19:26.154Z,12.00
2022-11-08T10:21:55.535Z,12.10
2022-11-08T10:24:25.483Z,12.20
2022-11-08T10:26:52.875Z,12.20
2022-11-08T10:29:21.291Z,12.20
2022-11-08T10:31:51.918Z,12.20
2022-11-08T10:34:24.940Z,12.20
2022-11-08T10:36:54.830Z,12.70
2022-11-08T10:39:23.845Z,13.00
2022-11-08T10:41:50.816Z,13.20
2022-11-08T10:44:22.038Z,13.60
2022-11-08T10:46:50.030Z,13.70
2022-11-08T10:49:17.079Z,13.40
2022-11-08T10:51:45.390Z,13.20
2022-11-08T10:54:31.171Z,13.20
2022-11-08T10:56:58.251Z,13.70
2022-11-08T10:59:29.209Z,13.80
2022-11-08T11:01:56.217Z,13.80
2022-11-08T11:04:27.560Z,13.80
2022-11-08T11:06:54.588Z,13.70
2022-11-08T11:09:22.412Z,13.50
2022-11-08T11:12:00.171Z,13.40
2022-11-08T11:14:27.185Z,13.30
2022-11-08T11:16:54.107Z,13.30
2022-11-08T11:19:21.421Z,13.30
2022-11-08T11:21:51.557Z,13.10
2022-11-08T11:24:20.427Z,13.10
2022-11-08T11:26:56.708Z,13.10
2022-11-08T11:29:27.484Z,13.10
2022-11-08T11:31:55.181Z,13.10
2022-11-08T11:34:24.847Z,13.10
2022-11-08T11:37:02.236Z,13.20
2022-11-08T11:39:37.523Z,13.30
2022-11-08T11:42:31.004Z,13.40
2022-11-08T11:44:59.447Z,13.40
2022-11-08T11:47:31.468Z,13.40
2022-11-08T11:50:10.097Z,13.50
2022-11-08T11:52:37.680Z,13.40
2022-11-08T11:55:04.895Z,13.40
2022-11-08T11:57:47.616Z,13.40
2022-11-08T12:00:15.238Z,13.40
2022-11-08T12:02:54.453Z,13.30
2022-11-08T12:05:26.496Z,13.30
2022-11-08T12:07:59.494Z,13.20
2022-11-08T12:10:33.424Z,13.20
2022-11-08T12:13:17.913Z,13.10
2022-11-08T12:16:00.808Z,13.10
2022-11-08T12:18:41.959Z,13.00
2022-11-08T12:21:10.350Z,12.90
2022-11-08T12:23:40.277Z,12.80
2022-11-08T12:26:07.388Z,12.80
2022-11-08T12:28:52.994Z,12.70
2022-11-08T12:31:34.097Z,12.70
2022-11-08T12:34:04.150Z,12.70
2022-11-08T12:36:50.042Z,12.70
2022-11-08T12:39:37.405Z,12.70
2022-11-08T12:42:22.771Z,12.60
2022-11-08T12:45:08.177Z,12.60
2022-11-08T12:47:37.446Z,12.50
2022-11-08T12:50:35.157Z,12.50
2022-11-08T12:53:26.776Z,12.30
2022-11-08T12:55:55.908Z,12.30
2022-11-08T12:58:33.090Z,12.30
2022-11-08T13:01:13.062Z,12.10
2022-11-08T13:03:43.114Z,12.10
2022-11-08T13:06:10.140Z,12.00
2022-11-08T13:09:15.298Z,12.00
2022-11-08T13:11:45.262Z,12.00
2022-11-08T13:14:16.725Z,12.00
2022-11-08T13:16:44.981Z,12.00
2022-11-08T13:19:26.901Z,12.00
2022-11-08T13:21:54.336Z,12.00
2022-11-08T13:27:43.859Z,12.10
2022-11-08T13:30:16.598Z,12.00
2022-11-08T13:32:43.784Z,12.00
2022-11-08T13:35:33.862Z,12.00
2022-11-08T13:38:23.685Z,12.00
2022-11-08T13:41:10.873Z,12.00
2022-11-08T13:43:37.925Z,12.00
2022-11-08T13:46:20.219Z,11.90
2022-11-08T13:49:10.110Z,11.90
2022-11-08T13:51:41.148Z,11.90
2022-11-08T13:54:23.088Z,12.00
2022-11-08T13:56:57.485Z,11.90
2022-11-08T13:59:30.579Z,11.90
2022-11-08T14:01:59.650Z,11.90
2022-11-08T14:04:30.952Z,11.90
2022-11-08T14:07:11.666Z,11.90
2022-11-08T14:09:44.874Z,11.90
2022-11-08T14:12:11.968Z,11.90
2022-11-08T14:14:44.671Z,11.90
2022-11-08T14:17:23.998Z,11.90
2022-11-08T14:19:58.499Z,11.90
2022-11-08T14:22:28.596Z,11.80
2022-11-08T14:25:00.436Z,11.90
2022-11-08T14:27:38.227Z,11.90
2022-11-08T14:30:13.621Z,11.90
2022-11-08T14:32:40.588Z,11.90
2022-11-08T14:35:19.293Z,11.90
2022-11-08T14:37:46.441Z,11.80
2022-11-08T14:40:21.306Z,11.80
2022-11-08T14:42:48.751Z,11.80
2022-11-08T14:45:18.159Z,11.80
2022-11-08T14:47:51.563Z,11.70
2022-11-08T14:50:20.168Z,11.80
2022-11-08T14:52:47.404Z,11.70
2022-11-08T14:55:15.824Z,11.70
2022-11-08T14:57:43.854Z,11.70
2022-11-08T15:00:13.846Z,11.60
2022-11-08T15:02:42.208Z,11.60
2022-11-08T15:05:27.757Z,11.60
2022-11-08T15:07:54.906Z,11.60
2022-11-08T15:10:22.006Z,11.50
2022-11-08T15:12:49.042Z,11.50
2022-11-08T15:15:21.034Z,11.60
2022-11-08T15:17:48.419Z,11.60
2022-11-08T15:20:20.720Z,11.60
2022-11-08T15:22:48.855Z,11.70
2022-11-08T15:25:44.431Z,11.60
2022-11-08T15:28:21.754Z,11.70
2022-11-08T15:30:57.335Z,11.70
2022-11-08T15:33:29.911Z,11.70
2022-11-08T15:35:58.976Z,11.70
2022-11-08T15:38:30.735Z,11.70
2022-11-08T15:41:00.027Z,11.80
2022-11-08T15:43:36.945Z,11.80
2022-11-08T15:46:05.601Z,11.80
2022-11-08T15:48:33.609Z,11.80
2022-11-08T15:51:00.823Z,11.80
2022-11-08T15:53:28.007Z,11.80
2022-11-08T15:56:02.328Z,11.60
2022-11-08T15:58:30.768Z,11.70
2022-11-08T16:00:58.865Z,11.60
2022-11-08T16:03:28.422Z,11.60
2022-11-08T16:05:56.220Z,11.60
2022-11-08T16:08:23.612Z,11.60
2022-11-08T16:10:53.904Z,11.60
2022-11-08T16:13:29.805Z,11.60
2022-11-08T16:15:57.816Z,11.60
2022-11-08T16:18:24.960Z,11.60
2022-11-08T16:20:51.954Z,11.60
2022-11-08T16:23:19.112Z,11.60
2022-11-08T16:25:46.318Z,11.60
2022-11-08T16:28:20.671Z,11.60
2022-11-08T16:30:48.317Z,11.50
2022-11-08T16:33:19.901Z,11.60
2022-11-08T16:35:47.112Z,11.50
2022-11-08T16:38:14.062Z,11.60
2022-11-08T16:40:44.041Z,11.50
2022-11-08T16:43:11.837Z,11.60
2022-11-08T16:46:03.849Z,11.50
2022-11-08T16:48:27.124Z,11.50
2022-11-08T16:51:01.570Z,11.50
2022-11-08T16:53:29.613Z,11.50
2022-11-08T16:55:59.354Z,11.50
2022-11-08T16:58:28.093Z,11.50
2022-11-08T17:00:56.547Z,11.50
2022-11-08T17:03:24.705Z,11.50
2022-11-08T17:05:52.320Z,11.50
2022-11-08T17:08:23.102Z,11.50
2022-11-08T17:10:50.220Z,11.50
2022-11-08T17:13:18.070Z,11.50
2022-11-08T17:15:45.411Z,11.50
2022-11-08T17:18:13.465Z,11.50
2022-11-08T17:20:40.931Z,11.50
2022-11-08T17:23:09.237Z,11.50
2022-11-08T17:25:37.326Z,11.50
2022-11-08T17:28:04.387Z,11.50
2022-11-08T17:30:31.532Z,11.50
2022-11-08T17:32:58.468Z,11.50
2022-11-08T17:35:25.503Z,11.50
2022-11-08T17:37:53.856Z,11.50
2022-11-08T17:40:20.971Z,11.50
2022-11-08T17:42:48.027Z,11.50
2022-11-08T17:45:15.121Z,11.40
2022-11-08T17:47:42.024Z,11.40
2022-11-08T17:50:10.183Z,11.40
2022-11-08T17:52:37.177Z,11.40
2022-11-08T17:55:04.692Z,11.40
2022-11-08T17:57:31.650Z,11.40
2022-11-08T17:59:58.646Z,11.40
2022-11-08T18:02:27.630Z,11.40
2022-11-08T18:04:57.720Z,11.40
2022-11-08T18:07:25.227Z,11.40
2022-11-08T18:09:52.213Z,11.40
2022-11-08T18:12:19.306Z,11.40
2022-11-08T18:14:46.250Z,11.40
2022-11-08T18:17:13.366Z,11.40
2022-11-08T18:19:40.427Z,11.40
2022-11-08T18:22:07.510Z,11.40
2022-11-08T18:24:34.604Z,11.40
2022-11-08T18:27:01.607Z,11.50
2022-11-08T18:29:28.533Z,11.40
2022-11-08T18:31:55.635Z,11.40
2022-11-08T18:34:22.672Z,11.50
2022-11-08T18:36:49.659Z,11.50
2022-11-08T18:39:19.391Z,11.50
2022-11-08T18:41:47.336Z,11.50
2022-11-08T18:44:14.490Z,11.40
2022-11-08T18:46:43.523Z,11.40
2022-11-08T18:49:10.960Z,11.30
2022-11-08T18:51:38.229Z,11.30
2022-11-08T18:54:05.201Z,11.30
2022-11-08T18:56:32.514Z,11.30
2022-11-08T18:58:59.435Z,11.30
2022-11-08T19:01:26.462Z,11.40
2022-11-08T19:03:53.466Z,11.30
2022-11-08T19:06:20.402Z,11.30
2022-11-08T19:08:47.463Z,11.30
2022-11-08T19:11:15.044Z,11.30
2022-11-08T19:13:42.319Z,11.30
2022-11-08T19:16:09.367Z,11.40
2022-11-08T19:18:37.729Z,11.40
2022-11-08T19:21:10.137Z,11.40
2022-11-08T19:23:38.559Z,11.40
2022-11-08T19:26:06.603Z,11.40
2022-11-08T19:28:35.114Z,11.40
2022-11-08T19:31:02.082Z,11.40
2022-11-08T19:33:30.290Z,11.50
2022-11-08T19:36:01.305Z,11.40
2022-11-08T19:38:28.227Z,11.50
2022-11-08T19:40:55.193Z,11.50
2022-11-08T19:43:22.213Z,11.50
2022-11-08T19:45:52.494Z,11.50
2022-11-08T19:48:19.871Z,11.50
2022-11-08T19:50:47.093Z,11.50
2022-11-08T19:53:14.636Z,11.50
2022-11-08T19:55:41.547Z,11.50
2022-11-08T19:58:08.597Z,11.50
2022-11-08T20:00:36.470Z,11.50
2022-11-08T20:03:03.507Z,11.50
2022-11-08T20:05:30.727Z,11.50
2022-11-08T20:07:57.688Z,11.40
2022-11-08T20:10:24.833Z,11.40
2022-11-08T20:12:51.824Z,11.50
2022-11-08T20:15:18.847Z,11.50
2022-11-08T20:17:45.975Z,11.50
2022-11-08T20:20:12.886Z,11.50
2022-11-08T20:22:41.233Z,11.50
2022-11-08T20:25:09.464Z,11.50
2022-11-08T20:27:36.587Z,11.50
2022-11-08T20:30:03.646Z,11.50
2022-11-08T20:32:31.791Z,11.50
2022-11-08T20:34:58.840Z,11.50
2022-11-08T20:37:25.790Z,11.50
2022-11-08T20:39:52.761Z,11.50
2022-11-08T20:42:20.869Z,11.60
2022-11-08T20:44:50.188Z,11.50
2022-11-08T20:47:17.319Z,11.50
2022-11-08T20:49:44.221Z,11.60
2022-11-08T20:52:11.295Z,11.60
2022-11-08T20:54:43.653Z,11.50
2022-11-08T20:57:11.034Z,11.60
2022-11-08T20:59:37.941Z,11.50
2022-11-08T21:02:05.256Z,11.50
2022-11-08T21:04:32.260Z,11.50
2022-11-08T21:07:59.928Z,11.60
2022-11-08T21:09:50.320Z,11.60
2022-11-08T21:12:18.071Z,11.60
2022-11-08T21:14:45.133Z,11.50
2022-11-08T21:17:21.853Z,11.60
2022-11-08T21:19:58.430Z,11.60
2022-11-08T21:22:25.603Z,11.60
2022-11-08T21:24:52.489Z,11.60
2022-11-08T21:27:19.581Z,11.50
2022-11-08T21:29:46.586Z,11.60
2022-11-08T21:32:13.910Z,11.60
2022-11-08T21:34:45.644Z,11.50
2022-11-08T21:37:13.392Z,11.50
2022-11-08T21:39:40.420Z,11.50
2022-11-08T21:42:07.367Z,11.50
2022-11-08T21:44:34.291Z,11.40
2022-11-08T21:47:01.210Z,11.40
2022-11-08T21:49:28.126Z,11.30
2022-11-08T21:51:55.209Z,11.30
2022-11-08T21:54:22.291Z,11.30
2022-11-08T21:56:49.225Z,11.30
2022-11-08T21:59:16.203Z,11.30
2022-11-08T22:01:43.358Z,11.30
2022-11-08T22:04:14.922Z,11.30
2022-11-08T22:06:47.829Z,11.30
2022-11-08T22:09:15.193Z,11.30
2022-11-08T22:11:42.201Z,11.30
2022-11-08T22:14:09.217Z,11.30
2022-11-08T22:16:36.642Z,11.40
2022-11-08T22:19:05.175Z,11.40
2022-11-08T22:21:39.215Z,11.40
2022-11-08T22:24:10.823Z,11.40
2022-11-08T22:26:38.388Z,11.40
2022-11-08T22:29:05.809Z,11.40
2022-11-08T22:31:33.132Z,11.40
2022-11-08T22:34:00.186Z,11.40
2022-11-08T22:36:27.961Z,11.40
2022-11-08T22:38:55.121Z,11.50
2022-11-08T22:41:22.636Z,11.50
2022-11-08T22:43:50.061Z,11.50
2022-11-08T22:46:17.272Z,11.50
2022-11-08T22:48:44.348Z,11.50
2022-11-08T22:51:11.667Z,11.50
2022-11-08T22:53:38.690Z,11.50
2022-11-08T22:56:10.713Z,11.50
2022-11-08T22:58:38.501Z,11.50
2022-11-08T23:01:05.653Z,11.50
2022-11-08T23:03:32.688Z,11.50
2022-11-08T23:05:59.734Z,11.50
2022-11-08T23:08:27.025Z,11.50
2022-11-08T23:11:13.110Z,11.50
2022-11-08T23:13:59.075Z,11.60
2022-11-08T23:16:38.216Z,11.60
2022-11-08T23:19:25.276Z,11.50
2022-11-08T23:22:11.084Z,11.50
2022-11-08T23:24:38.419Z,11.50
2022-11-08T23:27:24.498Z,11.50
2022-11-08T23:30:10.484Z,11.50
2022-11-08T23:32:41.363Z,11.50
2022-11-08T23:35:08.682Z,11.50
2022-11-08T23:37:35.605Z,11.50
2022-11-08T23:40:21.001Z,11.50
2022-11-08T23:43:06.770Z,11.50
2022-11-08T23:45:33.889Z,11.50
2022-11-08T23:48:01.168Z,11.50
2022-11-08T23:50:28.365Z,11.50
2022-11-08T23:52:55.317Z,11.50
2022-11-08T23:55:22.322Z,11.50
2022-11-08T23:57:49.287Z,11.40
